sensor_id;sensor_type;location;lat;lon;timestamp;temperature;humidity
35647;DHT22;28680;45.642;13.756;2024-03-02T00:00:14;11.80;99.90
35647;DHT22;28680;45.642;13.756;2024-03-02T00:02:41;11.80;99.90
35647;DHT22;28680;45.642;13.756;2024-03-02T00:05:07;11.90;99.90
35647;DHT22;28680;45.642;13.756;2024-03-02T00:07:33;11.90;99.90
35647;DHT22;28680;45.642;13.756;2024-03-02T00:10:00;11.90;99.90
35647;DHT22;28680;45.642;13.756;2024-03-02T00:12:26;11.90;99.90
35647;DHT22;28680;45.642;13.756;2024-03-02T00:14:52;11.90;99.90
35647;DHT22;28680;45.642;13.756;2024-03-02T00:17:26;11.90;99.90
35647;DHT22;28680;45.642;13.756;2024-03-02T00:19:52;11.90;99.90
35647;DHT22;28680;45.642;13.756;2024-03-02T00:22:18;11.90;99.90
35647;DHT22;28680;45.642;13.756;2024-03-02T00:24:44;11.90;99.90
35647;DHT22;28680;45.642;13.756;2024-03-02T00:27:13;11.90;99.90
35647;DHT22;28680;45.642;13.756;2024-03-02T00:29:40;11.80;99.90
35647;DHT22;28680;45.642;13.756;2024-03-02T00:32:16;11.70;99.90
35647;DHT22;28680;45.642;13.756;2024-03-02T00:34:42;11.70;99.90
35647;DHT22;28680;45.642;13.756;2024-03-02T00:37:08;11.70;99.90
35647;DHT22;28680;45.642;13.756;2024-03-02T00:39:34;11.60;99.90
35647;DHT22;28680;45.642;13.756;2024-03-02T00:42:01;11.60;99.90
35647;DHT22;28680;45.642;13.756;2024-03-02T00:44:27;11.60;99.90
35647;DHT22;28680;45.642;13.756;2024-03-02T00:46:55;11.60;99.90
35647;DHT22;28680;45.642;13.756;2024-03-02T00:49:22;11.50;99.90
35647;DHT22;28680;45.642;13.756;2024-03-02T00:51:50;11.50;99.90
35647;DHT22;28680;45.642;13.756;2024-03-02T00:54:19;11.50;99.90
35647;DHT22;28680;45.642;13.756;2024-03-02T00:56:47;11.50;99.90
35647;DHT22;28680;45.642;13.756;2024-03-02T00:59:13;11.50;99.90
35647;DHT22;28680;45.642;13.756;2024-03-02T01:01:38;11.50;99.90
35647;DHT22;28680;45.642;13.756;2024-03-02T01:04:04;11.50;99.90
35647;DHT22;28680;45.642;13.756;2024-03-02T01:06:31;11.50;99.90
35647;DHT22;28680;45.642;13.756;2024-03-02T01:08:57;11.40;99.90
35647;DHT22;28680;45.642;13.756;2024-03-02T01:11:22;11.40;99.90
35647;DHT22;28680;45.642;13.756;2024-03-02T01:13:48;11.40;99.90
35647;DHT22;28680;45.642;13.756;2024-03-02T01:16:14;11.40;99.90
35647;DHT22;28680;45.642;13.756;2024-03-02T01:18:41;11.30;99.90
35647;DHT22;28680;45.642;13.756;2024-03-02T01:21:07;11.30;99.90
35647;DHT22;28680;45.642;13.756;2024-03-02T01:23:33;11.30;99.90
35647;DHT22;28680;45.642;13.756;2024-03-02T01:25:59;11.30;99.90
35647;DHT22;28680;45.642;13.756;2024-03-02T01:28:25;11.30;99.90
35647;DHT22;28680;45.642;13.756;2024-03-02T01:30:51;11.40;99.90
35647;DHT22;28680;45.642;13.756;2024-03-02T01:33:17;11.40;99.90
35647;DHT22;28680;45.642;13.756;2024-03-02T01:35:44;11.40;99.90
35647;DHT22;28680;45.642;13.756;2024-03-02T01:38:10;11.30;99.90
35647;DHT22;28680;45.642;13.756;2024-03-02T01:40:36;11.30;99.90
35647;DHT22;28680;45.642;13.756;2024-03-02T01:43:03;11.40;99.90
35647;DHT22;28680;45.642;13.756;2024-03-02T01:45:29;11.30;99.90
35647;DHT22;28680;45.642;13.756;2024-03-02T01:47:55;11.30;99.90
35647;DHT22;28680;45.642;13.756;2024-03-02T01:50:27;11.30;99.90
35647;DHT22;28680;45.642;13.756;2024-03-02T01:52:55;11.30;99.90
35647;DHT22;28680;45.642;13.756;2024-03-02T01:55:20;11.40;99.90
35647;DHT22;28680;45.642;13.756;2024-03-02T01:57:47;11.40;99.90
35647;DHT22;28680;45.642;13.756;2024-03-02T02:00:14;11.40;99.90
35647;DHT22;28680;45.642;13.756;2024-03-02T02:02:40;11.40;99.90
35647;DHT22;28680;45.642;13.756;2024-03-02T02:05:06;11.40;99.90
35647;DHT22;28680;45.642;13.756;2024-03-02T02:07:32;11.40;99.90
35647;DHT22;28680;45.642;13.756;2024-03-02T02:09:58;11.30;99.90
35647;DHT22;28680;45.642;13.756;2024-03-02T02:12:24;11.30;99.90
35647;DHT22;28680;45.642;13.756;2024-03-02T02:14:50;11.40;99.90
35647;DHT22;28680;45.642;13.756;2024-03-02T02:17:16;11.50;99.90
35647;DHT22;28680;45.642;13.756;2024-03-02T02:19:42;11.50;99.90
35647;DHT22;28680;45.642;13.756;2024-03-02T02:22:11;11.60;99.90
35647;DHT22;28680;45.642;13.756;2024-03-02T02:24:43;11.60;99.90
35647;DHT22;28680;45.642;13.756;2024-03-02T02:27:09;11.60;99.90
35647;DHT22;28680;45.642;13.756;2024-03-02T02:29:36;11.50;99.90
35647;DHT22;28680;45.642;13.756;2024-03-02T02:32:02;11.50;99.90
35647;DHT22;28680;45.642;13.756;2024-03-02T02:34:28;11.50;99.90
35647;DHT22;28680;45.642;13.756;2024-03-02T02:36:54;11.50;99.90
35647;DHT22;28680;45.642;13.756;2024-03-02T02:39:21;11.50;99.90
35647;DHT22;28680;45.642;13.756;2024-03-02T02:41:48;11.50;99.90
35647;DHT22;28680;45.642;13.756;2024-03-02T02:44:14;11.50;99.90
35647;DHT22;28680;45.642;13.756;2024-03-02T02:46:40;11.50;99.90
35647;DHT22;28680;45.642;13.756;2024-03-02T02:49:06;11.60;99.90
35647;DHT22;28680;45.642;13.756;2024-03-02T02:51:32;11.50;99.90
35647;DHT22;28680;45.642;13.756;2024-03-02T02:53:58;11.60;99.90
35647;DHT22;28680;45.642;13.756;2024-03-02T02:56:24;11.50;99.90
35647;DHT22;28680;45.642;13.756;2024-03-02T02:58:50;11.50;99.90
35647;DHT22;28680;45.642;13.756;2024-03-02T03:01:16;11.60;99.90
35647;DHT22;28680;45.642;13.756;2024-03-02T03:03:45;11.60;99.90
35647;DHT22;28680;45.642;13.756;2024-03-02T03:06:11;11.60;99.90
35647;DHT22;28680;45.642;13.756;2024-03-02T03:08:37;11.60;99.90
35647;DHT22;28680;45.642;13.756;2024-03-02T03:11:04;11.60;99.90
35647;DHT22;28680;45.642;13.756;2024-03-02T03:13:34;11.60;99.90
35647;DHT22;28680;45.642;13.756;2024-03-02T03:16:00;11.60;99.90
35647;DHT22;28680;45.642;13.756;2024-03-02T03:18:26;11.60;99.90
35647;DHT22;28680;45.642;13.756;2024-03-02T03:20:52;11.60;99.90
35647;DHT22;28680;45.642;13.756;2024-03-02T03:23:18;11.60;99.90
35647;DHT22;28680;45.642;13.756;2024-03-02T03:25:43;11.60;99.90
35647;DHT22;28680;45.642;13.756;2024-03-02T03:28:11;11.60;99.90
35647;DHT22;28680;45.642;13.756;2024-03-02T03:30:37;11.60;99.90
35647;DHT22;28680;45.642;13.756;2024-03-02T03:33:04;11.60;99.90
35647;DHT22;28680;45.642;13.756;2024-03-02T03:35:32;11.60;99.90
35647;DHT22;28680;45.642;13.756;2024-03-02T03:37:57;11.60;99.90
35647;DHT22;28680;45.642;13.756;2024-03-02T03:40:24;11.60;99.90
35647;DHT22;28680;45.642;13.756;2024-03-02T03:42:49;11.60;99.90
35647;DHT22;28680;45.642;13.756;2024-03-02T03:45:16;11.60;99.90
35647;DHT22;28680;45.642;13.756;2024-03-02T03:47:42;11.60;99.90
35647;DHT22;28680;45.642;13.756;2024-03-02T03:50:08;11.60;99.90
35647;DHT22;28680;45.642;13.756;2024-03-02T03:52:34;11.60;99.90
35647;DHT22;28680;45.642;13.756;2024-03-02T03:55:00;11.60;99.90
35647;DHT22;28680;45.642;13.756;2024-03-02T03:57:26;11.60;99.90
35647;DHT22;28680;45.642;13.756;2024-03-02T03:59:52;11.60;99.90
35647;DHT22;28680;45.642;13.756;2024-03-02T04:02:19;11.60;99.90
35647;DHT22;28680;45.642;13.756;2024-03-02T04:04:45;11.60;99.90
35647;DHT22;28680;45.642;13.756;2024-03-02T04:07:11;11.70;99.90
35647;DHT22;28680;45.642;13.756;2024-03-02T04:09:37;11.60;99.90
35647;DHT22;28680;45.642;13.756;2024-03-02T04:12:03;11.60;99.90
35647;DHT22;28680;45.642;13.756;2024-03-02T04:14:29;11.60;99.90
35647;DHT22;28680;45.642;13.756;2024-03-02T04:16:55;11.60;99.90
35647;DHT22;28680;45.642;13.756;2024-03-02T04:19:21;11.60;99.90
35647;DHT22;28680;45.642;13.756;2024-03-02T04:21:46;11.60;99.90
35647;DHT22;28680;45.642;13.756;2024-03-02T04:24:12;11.60;99.90
35647;DHT22;28680;45.642;13.756;2024-03-02T04:26:38;11.60;99.90
35647;DHT22;28680;45.642;13.756;2024-03-02T04:29:04;11.60;99.90
35647;DHT22;28680;45.642;13.756;2024-03-02T04:31:30;11.60;99.90
35647;DHT22;28680;45.642;13.756;2024-03-02T04:33:55;11.50;99.90
35647;DHT22;28680;45.642;13.756;2024-03-02T04:36:21;11.50;99.90
35647;DHT22;28680;45.642;13.756;2024-03-02T04:38:47;11.50;99.90
35647;DHT22;28680;45.642;13.756;2024-03-02T04:41:13;11.50;99.90
35647;DHT22;28680;45.642;13.756;2024-03-02T04:43:39;11.40;99.90
35647;DHT22;28680;45.642;13.756;2024-03-02T04:46:05;11.40;99.90
35647;DHT22;28680;45.642;13.756;2024-03-02T04:48:32;11.40;99.90
35647;DHT22;28680;45.642;13.756;2024-03-02T04:50:58;11.40;99.90
35647;DHT22;28680;45.642;13.756;2024-03-02T04:53:24;11.40;99.90
35647;DHT22;28680;45.642;13.756;2024-03-02T04:55:49;11.40;99.90
35647;DHT22;28680;45.642;13.756;2024-03-02T04:58:34;11.40;99.90
35647;DHT22;28680;45.642;13.756;2024-03-02T05:01:00;11.50;99.90
35647;DHT22;28680;45.642;13.756;2024-03-02T05:03:25;11.50;99.90
35647;DHT22;28680;45.642;13.756;2024-03-02T05:05:51;11.50;99.90
35647;DHT22;28680;45.642;13.756;2024-03-02T05:08:17;11.40;99.90
35647;DHT22;28680;45.642;13.756;2024-03-02T05:10:43;11.50;99.90
35647;DHT22;28680;45.642;13.756;2024-03-02T05:13:09;11.50;99.90
35647;DHT22;28680;45.642;13.756;2024-03-02T05:15:34;11.50;99.90
35647;DHT22;28680;45.642;13.756;2024-03-02T05:18:00;11.50;99.90
35647;DHT22;28680;45.642;13.756;2024-03-02T05:20:28;11.40;99.90
35647;DHT22;28680;45.642;13.756;2024-03-02T05:22:54;11.40;99.90
35647;DHT22;28680;45.642;13.756;2024-03-02T05:25:19;11.50;99.90
35647;DHT22;28680;45.642;13.756;2024-03-02T05:27:45;11.50;99.90
35647;DHT22;28680;45.642;13.756;2024-03-02T05:30:12;11.50;99.90
35647;DHT22;28680;45.642;13.756;2024-03-02T05:32:37;11.50;99.90
35647;DHT22;28680;45.642;13.756;2024-03-02T05:35:04;11.50;99.90
35647;DHT22;28680;45.642;13.756;2024-03-02T05:37:30;11.50;99.90
35647;DHT22;28680;45.642;13.756;2024-03-02T05:39:56;11.40;99.90
35647;DHT22;28680;45.642;13.756;2024-03-02T05:42:22;11.40;99.90
35647;DHT22;28680;45.642;13.756;2024-03-02T05:44:48;11.40;99.90
35647;DHT22;28680;45.642;13.756;2024-03-02T05:47:13;11.30;99.90
35647;DHT22;28680;45.642;13.756;2024-03-02T05:49:39;11.30;99.90
35647;DHT22;28680;45.642;13.756;2024-03-02T05:52:05;11.30;99.90
35647;DHT22;28680;45.642;13.756;2024-03-02T05:54:31;11.30;99.90
35647;DHT22;28680;45.642;13.756;2024-03-02T05:56:57;11.30;99.90
35647;DHT22;28680;45.642;13.756;2024-03-02T05:59:22;11.30;99.90
35647;DHT22;28680;45.642;13.756;2024-03-02T06:01:48;11.30;99.90
35647;DHT22;28680;45.642;13.756;2024-03-02T06:04:17;11.20;99.90
35647;DHT22;28680;45.642;13.756;2024-03-02T06:06:42;11.20;99.90
35647;DHT22;28680;45.642;13.756;2024-03-02T06:09:09;11.20;99.90
35647;DHT22;28680;45.642;13.756;2024-03-02T06:11:38;11.20;99.90
35647;DHT22;28680;45.642;13.756;2024-03-02T06:14:05;11.20;99.90
35647;DHT22;28680;45.642;13.756;2024-03-02T06:16:32;11.20;99.90
35647;DHT22;28680;45.642;13.756;2024-03-02T06:18:58;11.20;99.90
35647;DHT22;28680;45.642;13.756;2024-03-02T06:21:24;11.20;99.90
35647;DHT22;28680;45.642;13.756;2024-03-02T06:23:50;11.20;99.90
35647;DHT22;28680;45.642;13.756;2024-03-02T06:26:16;11.20;99.90
35647;DHT22;28680;45.642;13.756;2024-03-02T06:28:42;11.20;99.90
35647;DHT22;28680;45.642;13.756;2024-03-02T06:31:08;11.20;99.90
35647;DHT22;28680;45.642;13.756;2024-03-02T06:33:34;11.30;99.90
35647;DHT22;28680;45.642;13.756;2024-03-02T06:36:00;11.30;99.90
35647;DHT22;28680;45.642;13.756;2024-03-02T06:38:27;11.30;99.90
35647;DHT22;28680;45.642;13.756;2024-03-02T06:40:53;11.40;99.90
35647;DHT22;28680;45.642;13.756;2024-03-02T06:43:20;11.40;99.90
35647;DHT22;28680;45.642;13.756;2024-03-02T06:45:50;11.50;99.90
35647;DHT22;28680;45.642;13.756;2024-03-02T06:48:17;11.40;99.90
35647;DHT22;28680;45.642;13.756;2024-03-02T06:50:46;11.50;99.90
35647;DHT22;28680;45.642;13.756;2024-03-02T06:53:13;11.50;99.90
35647;DHT22;28680;45.642;13.756;2024-03-02T06:55:39;11.50;99.90
35647;DHT22;28680;45.642;13.756;2024-03-02T06:58:05;11.50;99.90
35647;DHT22;28680;45.642;13.756;2024-03-02T07:00:31;11.60;99.90
35647;DHT22;28680;45.642;13.756;2024-03-02T07:02:56;11.60;99.90
35647;DHT22;28680;45.642;13.756;2024-03-02T07:05:22;11.70;99.90
35647;DHT22;28680;45.642;13.756;2024-03-02T07:07:48;11.70;99.90
35647;DHT22;28680;45.642;13.756;2024-03-02T07:10:14;11.80;99.90
35647;DHT22;28680;45.642;13.756;2024-03-02T07:12:40;11.80;99.90
35647;DHT22;28680;45.642;13.756;2024-03-02T07:15:06;11.90;99.90
35647;DHT22;28680;45.642;13.756;2024-03-02T07:17:32;11.90;99.90
35647;DHT22;28680;45.642;13.756;2024-03-02T07:19:58;12.00;99.90
35647;DHT22;28680;45.642;13.756;2024-03-02T07:22:24;12.00;99.90
35647;DHT22;28680;45.642;13.756;2024-03-02T07:24:50;12.10;99.90
35647;DHT22;28680;45.642;13.756;2024-03-02T07:27:16;12.20;99.90
35647;DHT22;28680;45.642;13.756;2024-03-02T07:29:43;12.20;99.90
35647;DHT22;28680;45.642;13.756;2024-03-02T07:32:10;12.30;99.90
35647;DHT22;28680;45.642;13.756;2024-03-02T07:34:36;12.40;99.90
35647;DHT22;28680;45.642;13.756;2024-03-02T07:37:03;12.40;99.90
35647;DHT22;28680;45.642;13.756;2024-03-02T07:39:29;12.30;99.90
35647;DHT22;28680;45.642;13.756;2024-03-02T07:41:55;12.30;99.90
35647;DHT22;28680;45.642;13.756;2024-03-02T07:44:21;12.30;99.90
35647;DHT22;28680;45.642;13.756;2024-03-02T07:46:48;12.40;99.90
35647;DHT22;28680;45.642;13.756;2024-03-02T07:49:17;12.30;99.90
35647;DHT22;28680;45.642;13.756;2024-03-02T07:51:43;12.30;99.90
35647;DHT22;28680;45.642;13.756;2024-03-02T07:54:09;12.30;99.90
35647;DHT22;28680;45.642;13.756;2024-03-02T07:56:35;12.30;99.90
35647;DHT22;28680;45.642;13.756;2024-03-02T07:59:02;12.30;99.90
35647;DHT22;28680;45.642;13.756;2024-03-02T08:01:28;12.30;99.90
35647;DHT22;28680;45.642;13.756;2024-03-02T08:04:01;12.30;99.90
35647;DHT22;28680;45.642;13.756;2024-03-02T08:06:29;12.30;99.90
35647;DHT22;28680;45.642;13.756;2024-03-02T08:09:00;12.30;99.90
35647;DHT22;28680;45.642;13.756;2024-03-02T08:11:26;12.20;99.90
35647;DHT22;28680;45.642;13.756;2024-03-02T08:13:56;12.20;99.90
35647;DHT22;28680;45.642;13.756;2024-03-02T08:16:23;12.30;99.90
35647;DHT22;28680;45.642;13.756;2024-03-02T08:18:49;12.30;99.90
35647;DHT22;28680;45.642;13.756;2024-03-02T08:21:16;12.30;99.90
35647;DHT22;28680;45.642;13.756;2024-03-02T08:23:42;12.30;99.90
35647;DHT22;28680;45.642;13.756;2024-03-02T08:26:09;12.20;99.90
35647;DHT22;28680;45.642;13.756;2024-03-02T08:28:36;12.20;99.90
35647;DHT22;28680;45.642;13.756;2024-03-02T08:31:06;12.30;99.90
35647;DHT22;28680;45.642;13.756;2024-03-02T08:33:33;12.30;99.90
35647;DHT22;28680;45.642;13.756;2024-03-02T08:35:59;12.30;99.90
35647;DHT22;28680;45.642;13.756;2024-03-02T08:38:25;12.40;99.90
35647;DHT22;28680;45.642;13.756;2024-03-02T08:40:51;12.40;99.90
35647;DHT22;28680;45.642;13.756;2024-03-02T08:43:17;12.40;99.90
35647;DHT22;28680;45.642;13.756;2024-03-02T08:45:43;12.50;99.90
35647;DHT22;28680;45.642;13.756;2024-03-02T08:48:10;12.60;99.90
35647;DHT22;28680;45.642;13.756;2024-03-02T08:50:36;12.70;99.90
35647;DHT22;28680;45.642;13.756;2024-03-02T08:53:03;12.80;99.90
35647;DHT22;28680;45.642;13.756;2024-03-02T08:55:30;12.90;99.90
35647;DHT22;28680;45.642;13.756;2024-03-02T08:57:56;13.00;99.90
35647;DHT22;28680;45.642;13.756;2024-03-02T09:00:22;13.10;99.90
35647;DHT22;28680;45.642;13.756;2024-03-02T09:02:49;13.10;99.90
35647;DHT22;28680;45.642;13.756;2024-03-02T09:05:15;13.20;99.90
35647;DHT22;28680;45.642;13.756;2024-03-02T09:07:41;13.20;99.90
35647;DHT22;28680;45.642;13.756;2024-03-02T09:10:08;13.20;99.90
35647;DHT22;28680;45.642;13.756;2024-03-02T09:12:34;13.30;99.90
35647;DHT22;28680;45.642;13.756;2024-03-02T09:15:01;13.30;99.90
35647;DHT22;28680;45.642;13.756;2024-03-02T09:17:27;13.50;99.90
35647;DHT22;28680;45.642;13.756;2024-03-02T09:19:53;13.80;99.90
35647;DHT22;28680;45.642;13.756;2024-03-02T09:22:20;14.20;99.90
35647;DHT22;28680;45.642;13.756;2024-03-02T09:24:45;14.40;99.90
35647;DHT22;28680;45.642;13.756;2024-03-02T09:27:11;14.70;99.90
35647;DHT22;28680;45.642;13.756;2024-03-02T09:29:37;14.80;99.90
35647;DHT22;28680;45.642;13.756;2024-03-02T09:32:03;14.90;99.90
35647;DHT22;28680;45.642;13.756;2024-03-02T09:34:29;14.90;99.90
35647;DHT22;28680;45.642;13.756;2024-03-02T09:36:55;14.90;99.90
35647;DHT22;28680;45.642;13.756;2024-03-02T09:39:21;15.30;99.90
35647;DHT22;28680;45.642;13.756;2024-03-02T09:41:48;14.90;99.90
35647;DHT22;28680;45.642;13.756;2024-03-02T09:44:14;14.90;99.90
35647;DHT22;28680;45.642;13.756;2024-03-02T09:46:40;15.10;99.90
35647;DHT22;28680;45.642;13.756;2024-03-02T09:49:06;15.30;99.90
35647;DHT22;28680;45.642;13.756;2024-03-02T09:51:32;15.70;99.90
35647;DHT22;28680;45.642;13.756;2024-03-02T09:53:57;15.90;99.90
35647;DHT22;28680;45.642;13.756;2024-03-02T09:56:26;16.00;99.90
35647;DHT22;28680;45.642;13.756;2024-03-02T09:58:52;16.10;99.90
35647;DHT22;28680;45.642;13.756;2024-03-02T10:01:17;16.20;99.90
35647;DHT22;28680;45.642;13.756;2024-03-02T10:03:45;16.50;99.90
35647;DHT22;28680;45.642;13.756;2024-03-02T10:06:27;17.30;99.90
35647;DHT22;28680;45.642;13.756;2024-03-02T10:08:54;18.50;99.90
35647;DHT22;28680;45.642;13.756;2024-03-02T10:14:06;19.90;99.90
35647;DHT22;28680;45.642;13.756;2024-03-02T10:16:36;21.00;99.90
35647;DHT22;28680;45.642;13.756;2024-03-02T10:19:22;21.60;99.90
35647;DHT22;28680;45.642;13.756;2024-03-02T10:21:52;21.50;99.90
35647;DHT22;28680;45.642;13.756;2024-03-02T10:24:20;20.60;99.90
35647;DHT22;28680;45.642;13.756;2024-03-02T10:26:46;20.70;99.90
35647;DHT22;28680;45.642;13.756;2024-03-02T10:29:12;21.70;99.90
35647;DHT22;28680;45.642;13.756;2024-03-02T10:31:40;22.70;99.90
35647;DHT22;28680;45.642;13.756;2024-03-02T10:34:10;22.90;99.90
35647;DHT22;28680;45.642;13.756;2024-03-02T10:36:37;22.40;99.90
35647;DHT22;28680;45.642;13.756;2024-03-02T10:39:04;21.70;99.90
35647;DHT22;28680;45.642;13.756;2024-03-02T10:41:38;21.50;99.90
35647;DHT22;28680;45.642;13.756;2024-03-02T10:44:08;21.80;99.90
35647;DHT22;28680;45.642;13.756;2024-03-02T10:46:36;22.50;99.90
35647;DHT22;28680;45.642;13.756;2024-03-02T10:49:03;22.20;99.90
35647;DHT22;28680;45.642;13.756;2024-03-02T10:51:31;22.20;99.90
35647;DHT22;28680;45.642;13.756;2024-03-02T10:53:58;22.50;99.90
35647;DHT22;28680;45.642;13.756;2024-03-02T10:56:40;23.40;99.90
35647;DHT22;28680;45.642;13.756;2024-03-02T10:59:24;23.60;99.90
35647;DHT22;28680;45.642;13.756;2024-03-02T11:01:57;23.60;99.90
35647;DHT22;28680;45.642;13.756;2024-03-02T11:04:28;23.90;99.90
35647;DHT22;28680;45.642;13.756;2024-03-02T11:07:09;23.70;99.90
35647;DHT22;28680;45.642;13.756;2024-03-02T11:09:40;22.50;99.90
35647;DHT22;28680;45.642;13.756;2024-03-02T11:12:12;22.20;99.90
35647;DHT22;28680;45.642;13.756;2024-03-02T11:14:42;21.50;99.90
35647;DHT22;28680;45.642;13.756;2024-03-02T11:17:09;21.20;99.90
35647;DHT22;28680;45.642;13.756;2024-03-02T11:19:38;21.40;99.90
35647;DHT22;28680;45.642;13.756;2024-03-02T11:22:05;20.80;99.90
35647;DHT22;28680;45.642;13.756;2024-03-02T11:24:32;20.80;99.90
35647;DHT22;28680;45.642;13.756;2024-03-02T11:27:06;20.90;99.90
35647;DHT22;28680;45.642;13.756;2024-03-02T11:32:17;20.40;99.90
35647;DHT22;28680;45.642;13.756;2024-03-02T11:34:46;20.10;99.90
35647;DHT22;28680;45.642;13.756;2024-03-02T11:37:15;19.50;99.90
35647;DHT22;28680;45.642;13.756;2024-03-02T11:39:46;19.30;99.90
35647;DHT22;28680;45.642;13.756;2024-03-02T11:42:13;19.10;99.90
35647;DHT22;28680;45.642;13.756;2024-03-02T11:44:46;18.70;99.90
35647;DHT22;28680;45.642;13.756;2024-03-02T11:47:14;18.40;99.90
35647;DHT22;28680;45.642;13.756;2024-03-02T11:49:43;18.20;99.90
35647;DHT22;28680;45.642;13.756;2024-03-02T11:52:12;18.10;99.90
35647;DHT22;28680;45.642;13.756;2024-03-02T11:54:39;18.10;99.90
35647;DHT22;28680;45.642;13.756;2024-03-02T11:57:06;17.80;99.90
35647;DHT22;28680;45.642;13.756;2024-03-02T11:59:33;17.70;99.90
35647;DHT22;28680;45.642;13.756;2024-03-02T12:01:59;17.60;99.90
35647;DHT22;28680;45.642;13.756;2024-03-02T12:04:25;17.40;99.90
35647;DHT22;28680;45.642;13.756;2024-03-02T12:06:56;17.20;99.90
35647;DHT22;28680;45.642;13.756;2024-03-02T12:09:22;16.70;99.90
35647;DHT22;28680;45.642;13.756;2024-03-02T12:11:48;16.40;99.90
35647;DHT22;28680;45.642;13.756;2024-03-02T12:14:26;16.20;99.90
35647;DHT22;28680;45.642;13.756;2024-03-02T12:16:54;15.80;99.90
35647;DHT22;28680;45.642;13.756;2024-03-02T12:19:21;15.70;99.90
35647;DHT22;28680;45.642;13.756;2024-03-02T12:21:47;15.40;99.90
35647;DHT22;28680;45.642;13.756;2024-03-02T12:24:13;15.30;99.90
35647;DHT22;28680;45.642;13.756;2024-03-02T12:26:39;15.20;99.90
35647;DHT22;28680;45.642;13.756;2024-03-02T12:29:05;15.20;99.90
35647;DHT22;28680;45.642;13.756;2024-03-02T12:31:31;15.10;99.90
35647;DHT22;28680;45.642;13.756;2024-03-02T12:33:58;15.00;99.90
35647;DHT22;28680;45.642;13.756;2024-03-02T12:36:24;14.80;99.90
35647;DHT22;28680;45.642;13.756;2024-03-02T12:38:53;14.50;99.90
35647;DHT22;28680;45.642;13.756;2024-03-02T12:41:20;14.60;99.90
35647;DHT22;28680;45.642;13.756;2024-03-02T12:43:46;14.40;99.90
35647;DHT22;28680;45.642;13.756;2024-03-02T12:46:12;14.30;99.90
35647;DHT22;28680;45.642;13.756;2024-03-02T12:48:38;14.10;99.90
35647;DHT22;28680;45.642;13.756;2024-03-02T12:51:07;14.00;99.90
35647;DHT22;28680;45.642;13.756;2024-03-02T12:53:33;13.70;99.90
35647;DHT22;28680;45.642;13.756;2024-03-02T12:55:59;13.50;99.90
35647;DHT22;28680;45.642;13.756;2024-03-02T12:58:25;13.50;99.90
35647;DHT22;28680;45.642;13.756;2024-03-02T13:01:06;13.60;99.90
35647;DHT22;28680;45.642;13.756;2024-03-02T13:03:36;13.40;99.90
35647;DHT22;28680;45.642;13.756;2024-03-02T13:06:02;13.40;99.90
35647;DHT22;28680;45.642;13.756;2024-03-02T13:08:28;13.40;99.90
35647;DHT22;28680;45.642;13.756;2024-03-02T13:10:54;13.40;99.90
35647;DHT22;28680;45.642;13.756;2024-03-02T13:13:21;13.40;99.90
35647;DHT22;28680;45.642;13.756;2024-03-02T13:15:48;13.50;99.90
35647;DHT22;28680;45.642;13.756;2024-03-02T13:18:14;13.60;99.90
35647;DHT22;28680;45.642;13.756;2024-03-02T13:20:40;13.60;99.90
35647;DHT22;28680;45.642;13.756;2024-03-02T13:23:06;13.60;99.90
35647;DHT22;28680;45.642;13.756;2024-03-02T13:25:32;13.60;99.90
35647;DHT22;28680;45.642;13.756;2024-03-02T13:27:58;13.70;99.90
35647;DHT22;28680;45.642;13.756;2024-03-02T13:30:24;13.90;99.90
35647;DHT22;28680;45.642;13.756;2024-03-02T13:32:50;13.90;99.90
35647;DHT22;28680;45.642;13.756;2024-03-02T13:35:16;14.10;99.90
35647;DHT22;28680;45.642;13.756;2024-03-02T13:37:42;14.20;99.90
35647;DHT22;28680;45.642;13.756;2024-03-02T13:40:08;14.20;99.90
35647;DHT22;28680;45.642;13.756;2024-03-02T13:42:39;14.10;99.90
35647;DHT22;28680;45.642;13.756;2024-03-02T13:45:06;14.10;99.90
35647;DHT22;28680;45.642;13.756;2024-03-02T13:47:32;14.10;99.90
35647;DHT22;28680;45.642;13.756;2024-03-02T13:49:57;14.10;99.90
35647;DHT22;28680;45.642;13.756;2024-03-02T13:52:23;14.10;99.90
35647;DHT22;28680;45.642;13.756;2024-03-02T13:54:51;14.10;99.90
35647;DHT22;28680;45.642;13.756;2024-03-02T13:57:17;14.00;99.90
35647;DHT22;28680;45.642;13.756;2024-03-02T13:59:45;13.90;99.90
35647;DHT22;28680;45.642;13.756;2024-03-02T14:02:12;14.00;99.90
35647;DHT22;28680;45.642;13.756;2024-03-02T14:04:38;14.00;99.90
35647;DHT22;28680;45.642;13.756;2024-03-02T14:07:05;13.90;99.90
35647;DHT22;28680;45.642;13.756;2024-03-02T14:09:34;13.90;99.90
35647;DHT22;28680;45.642;13.756;2024-03-02T14:12:00;13.90;99.90
35647;DHT22;28680;45.642;13.756;2024-03-02T14:14:26;13.90;99.90
35647;DHT22;28680;45.642;13.756;2024-03-02T14:16:53;13.90;99.90
35647;DHT22;28680;45.642;13.756;2024-03-02T14:19:21;13.80;99.90
35647;DHT22;28680;45.642;13.756;2024-03-02T14:21:47;13.80;99.90
35647;DHT22;28680;45.642;13.756;2024-03-02T14:24:14;13.70;99.90
35647;DHT22;28680;45.642;13.756;2024-03-02T14:26:39;13.80;99.90
35647;DHT22;28680;45.642;13.756;2024-03-02T14:29:08;13.70;99.90
35647;DHT22;28680;45.642;13.756;2024-03-02T14:31:34;13.70;99.90
35647;DHT22;28680;45.642;13.756;2024-03-02T14:34:00;13.70;99.90
35647;DHT22;28680;45.642;13.756;2024-03-02T14:36:29;13.70;99.90
35647;DHT22;28680;45.642;13.756;2024-03-02T14:38:55;13.80;99.90
35647;DHT22;28680;45.642;13.756;2024-03-02T14:41:22;13.90;99.90
35647;DHT22;28680;45.642;13.756;2024-03-02T14:43:49;13.90;99.90
35647;DHT22;28680;45.642;13.756;2024-03-02T14:46:16;13.80;99.90
35647;DHT22;28680;45.642;13.756;2024-03-02T14:48:44;13.80;99.90
35647;DHT22;28680;45.642;13.756;2024-03-02T14:51:10;13.80;99.90
35647;DHT22;28680;45.642;13.756;2024-03-02T14:53:36;13.50;99.90
35647;DHT22;28680;45.642;13.756;2024-03-02T14:56:04;13.50;99.90
35647;DHT22;28680;45.642;13.756;2024-03-02T14:58:30;13.40;99.90
35647;DHT22;28680;45.642;13.756;2024-03-02T15:00:56;13.30;99.90
35647;DHT22;28680;45.642;13.756;2024-03-02T15:03:21;13.30;99.90
35647;DHT22;28680;45.642;13.756;2024-03-02T15:05:47;13.20;99.90
35647;DHT22;28680;45.642;13.756;2024-03-02T15:08:17;13.20;99.90
35647;DHT22;28680;45.642;13.756;2024-03-02T15:10:43;13.10;99.90
35647;DHT22;28680;45.642;13.756;2024-03-02T15:13:09;13.00;99.90
35647;DHT22;28680;45.642;13.756;2024-03-02T15:15:35;13.00;99.90
35647;DHT22;28680;45.642;13.756;2024-03-02T15:18:01;12.90;99.90